Time;durP1;ratioP1;P1;durP2;ratioP2;P2;SDS_P1;SDS_P2;PMS_P1;PMS_P2;Temp;Humidity;BMP_temperature;BMP_pressure;BME280_temperature;BME280_humidity;BME280_pressure;Samples;Min_cycle;Max_cycle;Signal;HPM_P1;HPM_P2
2021/09/14 00:02:20;;;;;;;9.52;5.00;;;;;;;22.07;62.41;101217.34;5070396;28;20036;-61
2021/09/14 00:04:45;;;;;;;6.43;4.50;;;;;;;22.08;62.14;101228.84;5071015;28;20067;-61
2021/09/14 00:07:11;;;;;;;7.13;4.95;;;;;;;22.07;62.15;101217.34;5071335;28;20036;-61
2021/09/14 00:09:36;;;;;;;8.98;4.72;;;;;;;22.07;62.06;101213.84;5071393;28;20078;-61
2021/09/14 00:12:02;;;;;;;6.22;4.28;;;;;;;22.07;62.49;101213.84;5058202;28;20044;-61
2021/09/14 00:14:27;;;;;;;7.78;4.60;;;;;;;22.06;62.45;101206.88;5070415;28;20048;-61
2021/09/14 00:16:53;;;;;;;6.18;4.50;;;;;;;22.07;62.26;101216.53;5071356;28;20048;-61
2021/09/14 00:19:19;;;;;;;5.38;4.38;;;;;;;22.08;62.48;101215.50;5069304;28;20040;-61
2021/09/14 00:21:44;;;;;;;6.15;4.63;;;;;;;22.07;62.36;101209.34;5071895;28;20472;-61
2021/09/14 00:24:10;;;;;;;6.53;4.85;;;;;;;22.07;62.48;101208.50;5054764;28;20048;-61
2021/09/14 00:26:36;;;;;;;6.30;4.80;;;;;;;22.07;62.30;101212.00;5071125;28;20118;-61
2021/09/14 00:29:02;;;;;;;7.57;4.45;;;;;;;22.06;62.08;101201.53;5070550;28;20554;-61
2021/09/14 00:31:28;;;;;;;7.45;4.35;;;;;;;22.06;62.40;101205.03;5069561;28;20044;-61
2021/09/14 00:33:54;;;;;;;6.15;4.07;;;;;;;22.07;62.42;101206.66;5069502;28;20471;-61
2021/09/14 00:36:19;;;;;;;6.65;4.65;;;;;;;22.07;62.61;101209.34;5070726;28;20086;-61
2021/09/14 00:38:44;;;;;;;6.43;4.28;;;;;;;22.08;62.14;101207.47;5071287;28;20466;-62
2021/09/14 00:41:10;;;;;;;5.07;4.05;;;;;;;22.07;62.39;101200.50;5069314;28;20143;-61
2021/09/14 00:43:36;;;;;;;5.65;4.50;;;;;;;22.06;62.15;101197.00;5062700;28;20033;-61
2021/09/14 00:46:02;;;;;;;6.95;4.70;;;;;;;22.07;62.30;101200.50;5061016;28;20043;-61
2021/09/14 00:48:28;;;;;;;5.90;4.28;;;;;;;22.08;62.16;101199.47;5070055;28;20063;-61
2021/09/14 00:50:53;;;;;;;7.15;4.40;;;;;;;22.06;62.04;101199.69;5069402;28;20051;-62
2021/09/14 00:53:19;;;;;;;5.82;4.43;;;;;;;22.06;62.30;101197.00;5062215;28;20093;-61
2021/09/14 00:55:45;;;;;;;5.97;4.45;;;;;;;22.06;62.25;101191.66;5076671;28;20040;-61
2021/09/14 00:58:11;;;;;;;6.88;4.88;;;;;;;22.07;62.05;101189.81;5068871;28;20500;-61
2021/09/14 01:00:37;;;;;;;5.93;4.30;;;;;;;22.07;62.13;101192.47;5067794;28;20050;-61
2021/09/14 01:03:03;;;;;;;6.00;4.47;;;;;;;22.07;62.41;101192.47;5051931;28;20037;-61
2021/09/14 01:05:28;;;;;;;5.63;4.28;;;;;;;22.05;62.28;101198.03;5068777;28;20123;-61
2021/09/14 01:07:54;;;;;;;5.30;3.95;;;;;;;22.07;62.14;101197.81;5070012;28;20060;-62
2021/09/14 01:10:20;;;;;;;5.90;4.55;;;;;;;22.07;62.49;101192.47;5068446;28;20036;-61
2021/09/14 01:12:47;;;;;;;5.50;4.38;;;;;;;22.06;62.10;101189.00;5062045;28;20060;-61
2021/09/14 01:15:12;;;;;;;5.10;4.30;;;;;;;22.06;61.98;101191.66;5068374;28;20036;-62
2021/09/14 01:17:38;;;;;;;5.15;4.20;;;;;;;22.07;62.38;101190.63;5068767;28;20503;-61
2021/09/14 01:20:04;;;;;;;6.32;4.15;;;;;;;22.07;62.22;101181.78;5070180;28;20040;-61
2021/09/14 01:22:33;;;;;;;6.55;4.78;;;;;;;;;;5069292;28;20036;-61
2021/09/14 01:25:00;;;;;;;5.88;4.18;;;;;;;22.07;62.22;101184.47;5069920;28;20115;-61
2021/09/14 01:27:25;;;;;;;5.45;4.43;;;;;;;22.06;62.09;101178.31;5069851;28;20032;-61
2021/09/14 01:32:35;;;;;;;5.35;3.72;;;;;;;22.06;62.19;101180.16;5069170;28;20474;-61
2021/09/14 01:35:09;;;;;;;6.35;4.68;;;;;;;22.03;62.33;101178.69;5068059;28;20036;-61
2021/09/14 01:37:35;;;;;;;5.22;4.30;;;;;;;22.06;62.39;101174.81;5064716;28;20040;-61
2021/09/14 01:40:00;;;;;;;5.60;4.40;;;;;;;22.05;62.15;101174.00;5069580;28;20047;-61
2021/09/14 01:42:26;;;;;;;5.35;4.13;;;;;;;22.06;62.25;101170.28;5069755;28;20050;-61
2021/09/14 01:44:51;;;;;;;5.00;4.07;;;;;;;22.06;62.16;101166.78;5057842;28;20107;-61
2021/09/14 01:47:17;;;;;;;5.22;3.97;;;;;;;22.07;62.45;101163.09;5069620;28;20052;-61
2021/09/14 01:49:42;;;;;;;6.55;4.45;;;;;;;22.06;62.79;101158.78;5068410;28;20079;-61
2021/09/14 01:52:08;;;;;;;5.43;4.30;;;;;;;22.05;62.30;101163.31;5069879;28;20028;-61
2021/09/14 01:54:33;;;;;;;4.88;4.00;;;;;;;22.07;62.46;101163.09;5068573;28;20040;-61
2021/09/14 01:56:59;;;;;;;5.18;3.97;;;;;;;22.06;62.67;101153.44;5068782;28;20094;-61
2021/09/14 01:59:25;;;;;;;5.63;4.22;;;;;;;22.06;62.55;101150.75;5068783;28;20496;-61
2021/09/14 02:02:04;;;;;;;5.43;4.57;;;;;;;22.06;62.34;101151.59;5068937;28;20114;-61
2021/09/14 02:08:04;;;;;;;5.00;4.35;;;;;;;22.06;62.63;101153.44;5068659;28;20037;-61
2021/09/14 03:00:47;;;;;;;5.53;4.13;;;;;;;22.04;62.17;101126.06;5064845;28;20688;-61
2021/09/14 03:03:12;;;;;;;5.22;4.47;;;;;;;22.03;62.53;101124.44;5088780;28;20048;-61
2021/09/14 03:05:38;;;;;;;4.13;3.70;;;;;;;22.03;62.18;101130.59;5084842;28;20024;-61
2021/09/14 03:08:03;;;;;;;4.22;3.83;;;;;;;22.03;62.40;101130.59;5073857;28;20116;-61
2021/09/14 03:10:29;;;;;;;4.35;3.95;;;;;;;22.03;62.54;101130.59;5052475;28;20059;-61
2021/09/14 03:12:54;;;;;;;4.78;4.10;;;;;;;22.03;62.22;101133.28;5073909;28;20405;-61
2021/09/14 03:15:20;;;;;;;4.70;3.80;;;;;;;22.02;62.31;101128.94;5087860;28;20105;-61
2021/09/14 03:17:45;;;;;;;4.50;4.10;;;;;;;22.03;62.37;101127.09;5039654;28;20144;-61
2021/09/14 03:20:11;;;;;;;4.80;4.30;;;;;;;22.03;62.26;101119.09;5066376;28;20109;-61
2021/09/14 03:22:36;;;;;;;4.38;3.80;;;;;;;22.03;62.18;101125.25;5067907;28;20032;-61
2021/09/14 03:25:03;;;;;;;5.38;4.10;;;;;;;22.03;62.28;101124.44;5049490;28;20442;-61
2021/09/14 03:27:28;;;;;;;5.57;4.38;;;;;;;22.03;62.48;101119.91;5067690;28;20120;-61
2021/09/14 03:29:53;;;;;;;5.07;4.18;;;;;;;22.03;62.35;101113.75;5065032;28;20028;-62
2021/09/14 03:32:19;;;;;;;5.32;3.95;;;;;;;22.02;61.90;101107.59;5062484;28;20131;-61
2021/09/14 03:34:45;;;;;;;4.60;3.70;;;;;;;22.02;62.07;101107.59;5029843;28;20395;-61
2021/09/14 03:37:10;;;;;;;4.50;3.92;;;;;;;22.02;62.43;101107.59;5050212;28;20074;-61
2021/09/14 03:39:36;;;;;;;5.95;3.95;;;;;;;22.02;61.98;101107.59;5029758;28;20506;-61
2021/09/14 03:42:01;;;;;;;5.03;3.95;;;;;;;22.02;62.02;101112.94;5070824;28;20044;-61
2021/09/14 03:44:27;;;;;;;4.90;4.03;;;;;;;22.02;62.28;101110.25;5087656;28;20035;-61
2021/09/14 03:46:52;;;;;;;4.80;3.72;;;;;;;22.02;62.08;101104.09;5072858;28;20056;-61
2021/09/14 03:49:18;;;;;;;4.85;3.97;;;;;;;22.02;62.35;101104.09;5063855;28;20086;-62
2021/09/14 03:51:43;;;;;;;4.50;4.00;;;;;;;22.03;62.15;101108.41;5055083;28;20469;-61
2021/09/14 03:54:08;;;;;;;4.10;3.50;;;;;;;22.01;62.05;101105.94;5066493;28;20470;-61
2021/09/14 03:56:34;;;;;;;4.38;3.88;;;;;;;22.02;61.98;101107.59;5087749;28;20317;-61
2021/09/14 03:58:59;;;;;;;5.05;3.78;;;;;;;22.02;62.12;101104.09;5035217;28;20063;-61
2021/09/14 04:01:25;;;;;;;5.25;4.22;;;;;;;22.02;62.29;101104.09;5060002;28;20040;-61
2021/09/14 04:03:56;;;;;;;4.13;3.60;;;;;;;22.02;62.00;101101.41;5087332;28;20395;-61
2021/09/14 04:08:59;;;;;;;5.00;4.38;;;;;;;22.02;61.88;101104.09;5084002;28;20078;-61
2021/09/14 04:11:24;;;;;;;4.55;3.75;;;;;;;22.01;61.92;101100.59;5072847;28;20033;-61
2021/09/14 04:13:51;;;;;;;5.05;3.97;;;;;;;22.01;61.76;101105.94;5080448;28;20796;-61
2021/09/14 04:16:18;;;;;;;4.22;3.63;;;;;;;22.02;61.90;101101.41;5075769;28;20115;-61
2021/09/14 04:18:44;;;;;;;4.05;3.65;;;;;;;22.02;61.84;101109.44;5058540;28;20115;-61
2021/09/14 04:21:09;;;;;;;4.85;4.28;;;;;;;22.01;62.08;101108.63;5059881;28;20676;-61
2021/09/14 04:23:35;;;;;;;4.30;3.90;;;;;;;22.01;61.77;101110.47;5073453;28;20522;-62
2021/09/14 04:26:00;;;;;;;4.90;4.15;;;;;;;22.02;62.13;101104.09;5081644;28;20039;-61
2021/09/14 04:28:26;;;;;;;4.53;3.70;;;;;;;22.01;62.05;101103.28;5071918;28;20091;-61
2021/09/14 04:30:51;;;;;;;4.35;3.45;;;;;;;22.01;61.93;101105.94;5072807;28;20151;-61
2021/09/14 04:33:17;;;;;;;4.65;3.90;;;;;;;22.01;61.91;101105.13;5051329;28;20407;-61
2021/09/14 04:35:42;;;;;;;4.53;3.97;;;;;;;22.01;62.03;101107.78;5074316;28;20029;-61
2021/09/14 04:38:08;;;;;;;3.65;3.22;;;;;;;22.01;61.87;101100.59;5081445;28;20028;-61
2021/09/14 04:40:33;;;;;;;4.60;3.80;;;;;;;22.01;61.91;101105.94;5080909;28;20040;-61
2021/09/14 04:42:59;;;;;;;4.25;3.55;;;;;;;22.02;62.25;101106.75;5054401;28;20464;-61
2021/09/14 04:45:24;;;;;;;4.30;3.40;;;;;;;22.02;62.06;101098.75;5090831;28;20538;-61
2021/09/14 04:47:50;;;;;;;4.13;3.67;;;;;;;22.01;61.98;101097.94;5091698;28;20032;-61
2021/09/14 04:50:16;;;;;;;4.55;4.05;;;;;;;22.01;61.88;101095.25;5035076;28;20546;-61
2021/09/14 04:52:41;;;;;;;4.45;3.80;;;;;;;22.01;62.11;101097.09;5048301;28;20024;-61
2021/09/14 04:55:07;;;;;;;4.25;3.65;;;;;;;22.00;61.64;101090.13;5088271;28;20368;-61
2021/09/14 04:57:33;;;;;;;4.03;3.58;;;;;;;22.01;61.87;101091.75;5091356;28;20043;-61
2021/09/14 04:59:59;;;;;;;3.88;3.38;;;;;;;22.01;62.06;101095.25;5088123;28;20055;-61
2021/09/14 05:02:24;;;;;;;4.18;3.53;;;;;;;22.01;61.95;101092.59;5078239;28;20039;-61
2021/09/14 05:04:50;;;;;;;4.95;3.65;;;;;;;22.00;62.06;101090.13;5072018;28;20040;-61
2021/09/14 05:07:15;;;;;;;4.32;3.63;;;;;;;22.01;62.23;101091.75;5090652;28;20063;-61
2021/09/14 05:09:41;;;;;;;4.93;3.70;;;;;;;22.00;62.15;101093.63;5090533;28;20130;-61
2021/09/14 05:12:07;;;;;;;4.38;3.78;;;;;;;22.01;61.89;101091.75;5071671;28;20131;-61
2021/09/14 05:14:32;;;;;;;4.72;3.78;;;;;;;22.00;62.12;101085.59;5083756;28;20029;-61
2021/09/14 05:16:58;;;;;;;3.97;3.42;;;;;;;22.01;61.85;101091.75;5081834;28;20031;-61
2021/09/14 05:19:31;;;;;;;4.38;3.58;;;;;;;22.01;61.83;101086.41;5075713;28;20043;-61
2021/09/14 05:21:59;;;;;;;3.70;3.30;;;;;;;22.00;61.72;101087.44;5080785;28;20058;-61
2021/09/14 05:24:28;;;;;;;4.30;3.80;;;;;;;22.01;61.85;101089.09;5090191;28;20937;-61
2021/09/14 05:26:54;;;;;;;4.78;3.70;;;;;;;22.01;62.06;101081.06;5090355;28;20059;-61
2021/09/14 05:29:20;;;;;;;4.60;3.80;;;;;;;22.00;61.71;101079.44;5086952;28;20483;-61
2021/09/14 05:31:46;;;;;;;4.07;3.67;;;;;;;22.00;62.02;101082.09;5075637;28;20040;-61
2021/09/14 05:34:13;;;;;;;4.43;3.80;;;;;;;21.99;62.07;101073.28;5090007;28;20039;-61
2021/09/14 05:36:38;;;;;;;4.30;3.53;;;;;;;21.99;62.03;101077.78;5089967;28;20365;-61
2021/09/14 05:39:04;;;;;;;4.78;3.85;;;;;;;21.99;61.97;101073.28;5060544;28;20044;-61
2021/09/14 05:41:30;;;;;;;4.43;3.70;;;;;;;22.00;61.83;101082.94;5054697;28;20498;-61
2021/09/14 05:43:55;;;;;;;3.80;3.42;;;;;;;21.99;61.82;101085.81;5071154;28;20036;-61
2021/09/14 05:46:21;;;;;;;4.35;3.80;;;;;;;22.00;61.99;101085.59;5089995;28;20032;-61
2021/09/14 05:48:46;;;;;;;4.03;3.42;;;;;;;21.99;61.91;101086.63;5071264;28;20044;-61
2021/09/14 05:51:12;;;;;;;4.55;3.75;;;;;;;21.99;61.70;101088.47;5088614;28;20043;-61
2021/09/14 05:53:37;;;;;;;4.22;3.20;;;;;;;21.99;61.91;101089.31;5060574;28;20041;-61
2021/09/14 05:56:03;;;;;;;4.25;3.65;;;;;;;22.00;61.77;101093.63;5072534;28;20028;-61
2021/09/14 05:58:30;;;;;;;3.95;3.55;;;;;;;21.99;61.52;101094.66;5089280;28;20039;-61
2021/09/14 06:00:56;;;;;;;6.15;3.75;;;;;;;21.99;61.55;101091.16;5050396;28;20044;-61
2021/09/14 06:03:21;;;;;;;4.10;3.70;;;;;;;21.99;61.87;101091.97;5047095;28;20036;-61
2021/09/14 06:05:47;;;;;;;3.90;3.50;;;;;;;21.98;62.00;101090.34;5089328;28;20034;-61
2021/09/14 06:08:12;;;;;;;4.65;4.05;;;;;;;21.99;61.91;101093.81;5089372;28;20490;-61
2021/09/14 06:10:38;;;;;;;4.50;3.67;;;;;;;21.98;61.75;101095.69;5071122;28;20645;-61
2021/09/14 06:13:03;;;;;;;3.90;3.47;;;;;;;21.97;61.72;101091.34;5054864;28;20369;-61
2021/09/14 06:15:29;;;;;;;4.00;3.60;;;;;;;21.99;61.86;101099.16;5051417;28;20040;-61
2021/09/14 06:17:54;;;;;;;4.78;3.85;;;;;;;21.98;61.55;101090.34;5089154;28;20036;-61
2021/09/14 06:20:20;;;;;;;4.03;3.63;;;;;;;21.99;61.97;101096.50;5082375;28;20043;-61
2021/09/14 06:22:46;;;;;;;4.30;3.45;;;;;;;21.98;61.76;101098.34;5053732;28;20063;-61
2021/09/14 06:25:11;;;;;;;3.90;3.50;;;;;;;21.99;61.68;101093.81;5070843;28;20472;-61
2021/09/14 06:27:37;;;;;;;5.13;3.53;;;;;;;21.98;61.82;101095.69;5057443;28;20108;-61
2021/09/14 06:30:03;;;;;;;4.90;3.92;;;;;;;21.97;61.55;101094.03;5079283;28;20032;-61
2021/09/14 06:32:28;;;;;;;4.07;3.67;;;;;;;21.98;61.56;101094.84;5074388;28;20040;-61
2021/09/14 06:34:54;;;;;;;4.25;3.67;;;;;;;21.98;61.64;101100.19;5059245;28;20468;-62
2021/09/14 06:37:19;;;;;;;4.13;3.72;;;;;;;21.99;61.75;101112.53;5071237;28;20495;-62
2021/09/14 06:39:45;;;;;;;4.03;3.55;;;;;;;21.98;61.90;101106.34;5067698;28;20043;-62
2021/09/14 06:42:10;;;;;;;4.50;3.97;;;;;;;21.98;61.75;101109.03;5089136;28;20048;-62
2021/09/14 06:44:36;;;;;;;4.10;3.70;;;;;;;21.99;61.55;101117.88;5058231;28;20042;-63
2021/09/14 06:47:01;;;;;;;4.45;3.47;;;;;;;21.98;61.59;101119.72;5088818;28;20055;-63
2021/09/14 06:49:29;;;;;;;4.90;3.70;;;;;;;21.97;61.67;101123.41;5085673;28;20028;-63
2021/09/14 06:51:56;;;;;;;4.00;3.58;;;;;;;21.98;61.52;101111.69;5033802;28;20036;-63
2021/09/14 06:54:22;;;;;;;3.78;3.38;;;;;;;21.98;61.96;101130.41;5079826;28;20569;-63
2021/09/14 06:56:47;;;;;;;4.70;3.67;;;;;;;21.98;61.52;101118.91;5087930;28;20020;-63
2021/09/14 06:59:13;;;;;;;4.70;3.80;;;;;;;21.98;62.16;101121.56;5065823;28;20043;-61
2021/09/14 07:01:38;;;;;;;6.88;4.40;;;;;;;21.98;61.92;101122.38;5072564;28;20037;-62
2021/09/14 07:04:04;;;;;;;5.15;3.72;;;;;;;21.99;62.29;101132.03;5046178;28;20044;-63
2021/09/14 07:06:29;;;;;;;6.07;4.28;;;;;;;21.99;62.59;101131.22;5066552;28;20195;-63
2021/09/14 07:08:55;;;;;;;5.00;4.05;;;;;;;21.99;62.32;101136.56;5058728;28;20060;-63
2021/09/14 07:11:20;;;;;;;6.63;4.47;;;;;;;21.99;62.26;101149.91;5084991;28;20112;-63
2021/09/14 07:13:46;;;;;;;7.78;4.78;;;;;;;21.99;62.21;101152.59;5062071;28;20048;-63
2021/09/14 07:16:12;;;;;;;5.65;4.72;;;;;;;21.99;62.54;101152.59;5067554;28;20148;-63
2021/09/14 07:18:38;;;;;;;6.03;4.65;;;;;;;21.98;62.65;101157.13;5067602;28;20622;-63
2021/09/14 07:21:05;;;;;;;6.10;4.68;;;;;;;21.98;62.48;101159.78;5067721;28;20115;-63
2021/09/14 07:23:31;;;;;;;9.02;4.43;;;;;;;21.97;62.62;101158.13;5060688;28;20044;-63
2021/09/14 07:25:57;;;;;;;6.03;4.78;;;;;;;21.97;62.82;101154.66;5068894;28;20498;-63
2021/09/14 07:28:22;;;;;;;6.60;4.57;;;;;;;21.97;62.58;101155.47;5066337;28;20036;-63
2021/09/14 07:30:48;;;;;;;8.35;4.90;;;;;;;21.96;62.45;101155.69;5065223;28;20039;-62
2021/09/14 07:33:13;;;;;;;11.23;5.55;;;;;;;21.96;62.31;101161.84;5063219;28;20041;-63
2021/09/14 07:35:39;;;;;;;7.88;4.55;;;;;;;21.96;62.52;101153.00;5048178;28;20037;-64
2021/09/14 07:38:05;;;;;;;7.50;4.55;;;;;;;21.95;62.89;101157.53;5046220;28;20060;-64
2021/09/14 07:40:31;;;;;;;10.88;5.03;;;;;;;21.96;63.00;101161.84;5048317;28;20497;-63
2021/09/14 07:42:57;;;;;;;10.68;4.95;;;;;;;21.97;63.05;101162.66;5065806;28;20045;-63
2021/09/14 07:45:24;;;;;;;10.98;4.82;;;;;;;21.97;62.90;101163.47;5065753;28;20119;-63
2021/09/14 07:47:49;;;;;;;9.20;5.18;;;;;;;21.96;62.93;101164.50;5066487;28;20475;-64
2021/09/14 07:50:15;;;;;;;10.23;5.20;;;;;;;21.97;63.14;101160.81;5067293;28;20039;-61
2021/09/14 07:52:41;;;;;;;7.38;4.97;;;;;;;21.97;62.95;101166.16;5068998;28;20044;-63
2021/09/14 07:55:07;;;;;;;11.10;5.45;;;;;;;21.97;63.22;101168.81;5068041;28;20044;-63
2021/09/14 07:57:33;;;;;;;10.15;5.57;;;;;;;21.97;63.05;101170.69;5064799;28;20059;-63
2021/09/14 07:59:59;;;;;;;8.52;5.25;;;;;;;21.97;63.02;101165.34;5064108;28;20389;-63
2021/09/14 08:02:24;;;;;;;16.00;6.30;;;;;;;21.97;62.82;101168.00;5060908;28;20036;-62
2021/09/14 08:04:50;;;;;;;8.55;5.65;;;;;;;21.96;62.83;101169.84;5062545;28;20047;-62
2021/09/14 08:07:16;;;;;;;8.40;5.28;;;;;;;21.96;62.72;101161.03;5076176;28;20041;-63
2021/09/14 08:09:42;;;;;;;9.68;4.82;;;;;;;21.97;62.85;101160.00;5064069;28;20511;-63
2021/09/14 08:12:07;;;;;;;9.18;5.15;;;;;;;21.97;62.88;101162.66;5052798;28;20368;-60
2021/09/14 08:14:33;;;;;;;8.30;5.07;;;;;;;21.97;62.70;101168.00;5070074;28;20044;-61
2021/09/14 08:16:58;;;;;;;10.10;5.45;;;;;;;21.97;62.77;101168.81;5070986;28;20035;-60
2021/09/14 08:19:24;;;;;;;9.18;5.10;;;;;;;21.98;62.55;101166.97;5070121;28;20028;-61
2021/09/14 08:21:49;;;;;;;9.45;5.25;;;;;;;21.98;62.57;101169.66;5071424;28;20566;-61
2021/09/14 08:24:15;;;;;;;8.55;5.55;;;;;;;21.98;62.52;101165.13;5052795;28;20537;-61
2021/09/14 08:26:41;;;;;;;8.70;5.15;;;;;;;21.99;62.47;101156.09;5071337;28;20139;-61
2021/09/14 08:29:07;;;;;;;8.95;5.20;;;;;;;21.98;62.39;101162.47;5070696;28;20503;-61
2021/09/14 08:31:32;;;;;;;8.55;5.20;;;;;;;21.98;62.27;101161.63;5071082;28;20035;-61
2021/09/14 08:33:58;;;;;;;6.55;4.90;;;;;;;21.98;62.27;101157.13;5070543;28;20038;-61
2021/09/14 08:36:24;;;;;;;8.57;5.00;;;;;;;21.97;61.82;101155.47;5071099;28;20036;-61
2021/09/14 08:38:51;;;;;;;8.43;4.82;;;;;;;21.98;61.85;101149.09;5071193;28;20126;-61
2021/09/14 08:41:17;;;;;;;7.28;5.07;;;;;;;21.97;62.04;101152.81;5070793;28;20357;-61
2021/09/14 08:43:45;;;;;;;8.70;4.35;;;;;;;21.99;61.97;101149.91;5070549;28;20467;-61
2021/09/14 08:46:13;;;;;;;7.80;4.63;;;;;;;21.99;61.86;101145.41;5070818;28;20024;-61
2021/09/14 08:48:38;;;;;;;7.45;5.10;;;;;;;22.00;61.98;101146.22;5043094;28;20024;-61
2021/09/14 08:51:06;;;;;;;6.82;4.70;;;;;;;22.01;61.91;101155.88;5070732;28;20791;-62
2021/09/14 08:53:34;;;;;;;6.63;4.78;;;;;;;22.00;61.73;101157.72;5070801;28;20162;-61
2021/09/14 08:56:04;;;;;;;8.63;4.45;;;;;;;22.01;61.45;101146.00;5070869;28;20040;-61
2021/09/14 08:58:30;;;;;;;5.38;4.10;;;;;;;22.01;61.64;101151.34;5070497;28;20075;-61
2021/09/14 09:00:56;;;;;;;5.47;4.40;;;;;;;22.02;61.76;101154.84;5062580;28;20569;-61
2021/09/14 09:03:24;;;;;;;7.22;4.97;;;;;;;22.02;61.88;101155.66;5065867;28;20066;-61
2021/09/14 09:05:50;;;;;;;5.88;4.68;;;;;;;22.01;61.62;101159.38;5070558;28;20506;-61
2021/09/14 09:08:22;;;;;;;5.65;4.25;;;;;;;22.01;61.53;101164.72;5070341;28;20160;-61
2021/09/14 09:11:10;;;;;;;7.15;4.63;;;;;;;22.00;61.70;101160.41;5046164;28;20480;-61
2021/09/14 09:13:45;;;;;;;6.15;4.55;;;;;;;22.02;61.49;101160.19;5069867;28;20036;-61
2021/09/14 09:16:27;;;;;;;6.65;5.03;;;;;;;22.01;61.92;101158.56;5052023;28;20503;-61
2021/09/14 09:18:57;;;;;;;6.10;4.50;;;;;;;22.05;61.57;101168.66;5069582;28;20043;-61
2021/09/14 09:21:34;;;;;;;6.78;4.20;;;;;;;22.04;61.70;101164.28;5070376;28;20085;-61
2021/09/14 09:24:09;;;;;;;6.47;4.40;;;;;;;22.04;61.70;101156.28;5070131;28;20516;-61
2021/09/14 09:26:39;;;;;;;;;;;;;;;21.97;62.09;101163.47;5052721;28;20388;-61
2021/09/14 09:29:07;;;;;;;5.60;4.28;;;;;;;22.06;61.78;101164.94;5051422;28;19978;-61
2021/09/14 09:31:42;;;;;;;6.68;4.10;;;;;;;22.07;61.80;101163.91;5051797;28;20440;-62
2021/09/14 09:34:09;;;;;;;6.85;3.95;;;;;;;22.09;61.62;101169.91;5051430;28;20495;-61
2021/09/14 09:36:40;;;;;;;7.03;4.35;;;;;;;22.09;62.00;101171.72;5070164;28;20064;-61
2021/09/14 09:39:08;;;;;;;5.95;4.05;;;;;;;22.10;61.70;101168.06;5070021;28;20044;-61
2021/09/14 09:41:38;;;;;;;5.50;4.45;;;;;;;22.10;61.84;101160.84;5069988;28;20020;-62
2021/09/14 09:44:12;;;;;;;5.82;4.07;;;;;;;22.09;61.78;101169.06;5069481;28;20486;-61
2021/09/14 09:46:38;;;;;;;5.07;3.78;;;;;;;22.11;61.75;101159.00;5069780;28;20044;-61
2021/09/14 09:49:06;;;;;;;6.75;3.60;;;;;;;22.11;61.86;101170.53;5069074;28;20036;-61
2021/09/14 09:51:33;;;;;;;4.95;3.80;;;;;;;22.13;61.57;101174.84;5069796;28;20112;-61
2021/09/14 09:54:00;;;;;;;5.30;4.05;;;;;;;22.14;61.83;101171.94;5069575;28;20056;-61
2021/09/14 09:56:26;;;;;;;5.65;3.88;;;;;;;22.14;61.69;101165.78;5069650;28;20452;-61
2021/09/14 09:58:51;;;;;;;5.53;3.92;;;;;;;22.15;61.83;101175.44;5069246;28;20056;-61
2021/09/14 10:01:21;;;;;;;6.20;4.15;;;;;;;22.15;61.58;101167.44;5040958;28;20161;-61
2021/09/14 10:04:11;;;;;;;5.90;3.90;;;;;;;22.11;61.88;101175.84;5047725;28;20125;-62
2021/09/14 10:06:44;;;;;;;5.75;3.83;;;;;;;22.15;61.60;101178.13;5068896;28;20056;-61
2021/09/14 10:09:10;;;;;;;5.00;4.10;;;;;;;22.15;61.81;101167.44;5068933;28;20068;-61
2021/09/14 10:11:37;;;;;;;5.50;4.40;;;;;;;22.16;61.42;101167.22;5069058;28;20036;-62
2021/09/14 10:14:09;;;;;;;7.00;5.30;;;;;;;22.15;61.36;101164.75;5069076;28;20117;-61
2021/09/14 10:16:36;;;;;;;4.68;4.15;;;;;;;22.16;61.15;101161.06;5069089;28;20123;-61
2021/09/14 10:19:09;;;;;;;5.70;4.22;;;;;;;22.15;61.38;101160.22;5068623;28;20032;-61
2021/09/14 10:21:36;;;;;;;5.15;4.07;;;;;;;22.18;61.44;101156.31;5068862;28;20143;-62
2021/09/14 10:24:01;;;;;;;5.68;4.10;;;;;;;22.17;61.51;101163.53;5050960;28;20040;-61
2021/09/14 10:26:34;;;;;;;6.75;4.90;;;;;;;22.15;61.16;101156.75;5068517;28;20036;-61
2021/09/14 10:29:13;;;;;;;6.05;3.85;;;;;;;22.15;61.22;101156.75;5068746;28;20044;-61
2021/09/14 10:31:39;;;;;;;7.25;4.68;;;;;;;22.16;61.16;101153.84;5068158;28;20033;-61
2021/09/14 10:34:08;;;;;;;5.28;3.95;;;;;;;22.17;61.43;101165.38;5068816;28;20028;-61
2021/09/14 10:36:35;;;;;;;5.47;4.18;;;;;;;22.18;61.34;101161.66;5068136;28;20040;-61
2021/09/14 10:39:03;;;;;;;6.38;4.05;;;;;;;22.18;61.48;101162.50;5068830;28;20044;-61
2021/09/14 10:41:40;;;;;;;4.78;3.75;;;;;;;22.16;61.43;101167.22;5068224;28;20029;-61
2021/09/14 10:44:09;;;;;;;6.97;4.35;;;;;;;22.18;61.01;101167.00;5068585;28;20056;-61
2021/09/14 10:46:36;;;;;;;6.00;4.05;;;;;;;22.20;61.33;101172.97;5049971;28;20455;-61
2021/09/14 10:49:22;;;;;;;5.53;4.22;;;;;;;22.16;61.44;101169.06;5050557;28;20064;-61
2021/09/14 10:51:56;;;;;;;5.60;4.38;;;;;;;22.17;61.22;101174.22;5067424;28;20475;-61
2021/09/14 10:54:22;;;;;;;4.82;4.32;;;;;;;22.20;60.99;101183.66;5068407;28;20074;-61
2021/09/14 10:56:49;;;;;;;5.50;4.47;;;;;;;22.20;60.89;101172.97;5068197;28;20031;-61
2021/09/14 10:59:17;;;;;;;5.78;4.07;;;;;;;22.20;60.96;101164.97;5068445;28;20035;-61
2021/09/14 11:01:43;;;;;;;7.50;4.40;;;;;;;22.20;60.74;101171.13;5055193;28;20037;-61
2021/09/14 11:04:09;;;;;;;5.55;4.03;;;;;;;22.21;61.02;101171.94;5067957;28;20043;-61
2021/09/14 11:06:34;;;;;;;7.45;4.03;;;;;;;22.20;61.03;101159.59;5068012;28;20388;-61
2021/09/14 11:09:02;;;;;;;5.50;4.10;;;;;;;22.21;60.95;101158.59;5047087;28;20088;-61
2021/09/14 11:11:28;;;;;;;4.80;4.18;;;;;;;22.22;61.15;101162.91;5067745;28;20044;-61
2021/09/14 11:13:54;;;;;;;4.78;3.95;;;;;;;22.21;61.24;101158.59;5063763;28;20028;-60
2021/09/14 11:16:20;;;;;;;5.15;4.03;;;;;;;22.21;61.19;101147.91;5067487;28;20052;-61
2021/09/14 11:18:45;;;;;;;6.80;4.03;;;;;;;22.21;60.94;101153.22;5068490;28;20047;-61
2021/09/14 11:21:16;;;;;;;5.10;4.35;;;;;;;22.21;61.35;101148.72;5065383;28;20032;-61
2021/09/14 11:23:44;;;;;;;4.53;3.55;;;;;;;22.22;61.33;101152.22;5061864;28;20032;-61
2021/09/14 11:26:18;;;;;;;5.72;4.30;;;;;;;22.21;61.21;101151.38;5067617;28;20112;-61
2021/09/14 11:28:58;;;;;;;5.28;4.07;;;;;;;22.19;61.24;101150.78;5068369;28;20445;-61
2021/09/14 11:31:26;;;;;;;6.00;4.22;;;;;;;22.22;61.03;101138.84;5067605;28;20083;-61
2021/09/14 11:33:52;;;;;;;6.40;4.28;;;;;;;22.23;60.85;101138.63;5068537;28;20158;-62
2021/09/14 11:36:18;;;;;;;6.38;4.55;;;;;;;22.23;61.10;101152.00;5067414;28;20028;-61
2021/09/14 11:38:43;;;;;;;6.55;4.50;;;;;;;22.23;61.25;101152.00;5062389;28;20067;-61
2021/09/14 11:41:13;;;;;;;5.80;4.35;;;;;;;22.23;61.11;101151.19;5067731;28;20042;-61
2021/09/14 11:43:41;;;;;;;6.40;4.50;;;;;;;22.24;61.15;101145.63;5072360;28;20115;-61
2021/09/14 11:46:18;;;;;;;7.07;3.92;;;;;;;22.22;61.30;101144.19;5071655;28;20078;-62
2021/09/14 11:48:54;;;;;;;5.65;4.50;;;;;;;22.22;61.43;101144.19;5059286;28;20025;-61
2021/09/14 11:51:20;;;;;;;5.78;4.28;;;;;;;22.24;60.96;101140.28;5071004;28;20793;-61
2021/09/14 11:53:48;;;;;;;5.63;3.90;;;;;;;22.25;61.00;101146.44;5072194;28;20035;-61
2021/09/14 11:56:15;;;;;;;4.82;4.25;;;;;;;22.25;61.24;101143.78;5071893;28;20032;-61
2021/09/14 11:58:45;;;;;;;6.28;4.50;;;;;;;22.26;61.31;101140.09;5071803;28;20044;-61
2021/09/14 12:01:12;;;;;;;6.43;4.20;;;;;;;22.26;61.17;101138.25;5060128;28;20041;-61
2021/09/14 12:03:39;;;;;;;4.93;4.30;;;;;;;22.26;61.29;101150.78;5069456;28;20146;-62
2021/09/14 12:06:06;;;;;;;5.47;3.80;;;;;;;22.27;60.80;101155.09;5071312;28;20476;-61
2021/09/14 12:08:33;;;;;;;6.03;4.13;;;;;;;22.26;61.00;101150.78;5078520;28;20090;-61
2021/09/14 12:11:00;;;;;;;4.78;3.70;;;;;;;22.25;60.66;101149.97;5091633;28;20095;-62
2021/09/14 12:13:26;;;;;;;6.85;3.67;;;;;;;22.25;60.65;101157.13;5091618;28;20028;-62
2021/09/14 12:15:58;;;;;;;4.43;3.70;;;;;;;22.24;60.87;101152.81;5091144;28;20436;-62
2021/09/14 12:18:24;;;;;;;5.85;3.85;;;;;;;22.23;60.57;101154.66;5082456;28;20036;-62
2021/09/14 12:20:50;;;;;;;4.78;3.70;;;;;;;22.23;60.56;101156.53;5086058;28;20444;-63
2021/09/14 12:23:16;;;;;;;4.53;3.88;;;;;;;22.21;60.58;101155.91;5091456;28;20036;-61
2021/09/14 12:25:42;;;;;;;5.50;4.20;;;;;;;22.20;60.33;101157.75;5091682;28;20039;-62